createdAt,value
2023-03-29T00:00:18.519Z,49
2023-03-29T00:05:22.519Z,48
2023-03-29T00:10:18.924Z,48
2023-03-29T00:15:13.946Z,48
2023-03-29T00:20:25.867Z,48
2023-03-29T00:25:16.269Z,48
2023-03-29T00:30:16.553Z,48
2023-03-29T00:35:21.873Z,47
2023-03-29T00:40:18.043Z,47
2023-03-29T00:45:16.287Z,48
2023-03-29T00:50:22.440Z,47
2023-03-29T00:55:18.576Z,48
2023-03-29T01:00:24.480Z,47
2023-03-29T01:05:20.513Z,47
2023-03-29T01:10:22.776Z,48
2023-03-29T01:15:28.729Z,48
2023-03-29T01:20:15.762Z,48
2023-03-29T01:25:13.803Z,48
2023-03-29T01:30:15.913Z,48
2023-03-29T01:35:18.434Z,48
2023-03-29T01:40:18.618Z,48
2023-03-29T01:45:16.759Z,48
2023-03-29T01:50:20.198Z,47
2023-03-29T01:55:22.242Z,48
2023-03-29T02:00:24.248Z,48
2023-03-29T02:05:16.361Z,48
2023-03-29T02:10:16.779Z,48
2023-03-29T02:15:18.475Z,48
2023-03-29T02:20:16.940Z,48
2023-03-29T02:25:24.184Z,48
2023-03-29T02:30:16.369Z,48
2023-03-29T02:35:18.649Z,47
2023-03-29T02:40:20.600Z,48
2023-03-29T02:45:22.504Z,47
2023-03-29T02:50:16.528Z,48
2023-03-29T02:55:14.718Z,48
2023-03-29T03:00:20.633Z,48
2023-03-29T03:05:14.613Z,48
2023-03-29T03:10:22.705Z,48
2023-03-29T03:15:16.842Z,48
2023-03-29T03:20:16.189Z,48
2023-03-29T03:25:14.309Z,48
2023-03-29T03:30:14.343Z,48
2023-03-29T03:35:14.239Z,48
2023-03-29T03:40:20.106Z,48
2023-03-29T03:45:22.087Z,48
2023-03-29T03:50:20.057Z,48
2023-03-29T03:55:29.919Z,50
2023-03-29T04:00:15.920Z,49
2023-03-29T04:05:18.083Z,49
2023-03-29T04:10:18.260Z,48
2023-03-29T04:15:20.480Z,49
2023-03-29T04:20:16.483Z,49
2023-03-29T04:25:14.872Z,51
2023-03-29T04:30:14.153Z,55
2023-03-29T04:35:16.088Z,54
2023-03-29T04:40:14.391Z,53
2023-03-29T04:45:14.569Z,53
2023-03-29T04:50:18.795Z,53
2023-03-29T04:55:14.881Z,52
2023-03-29T05:00:13.845Z,52
2023-03-29T05:05:18.309Z,52
2023-03-29T05:10:20.582Z,51
2023-03-29T05:15:14.412Z,51
2023-03-29T05:20:24.393Z,51
2023-03-29T05:25:22.334Z,50
2023-03-29T05:30:16.415Z,51
2023-03-29T05:35:18.834Z,51
2023-03-29T05:40:20.114Z,51
2023-03-29T05:45:18.333Z,51
2023-03-29T05:50:20.558Z,50
2023-03-29T05:55:14.323Z,51
2023-03-29T06:00:14.266Z,50
2023-03-29T06:05:20.102Z,50
2023-03-29T06:10:21.938Z,51
2023-03-29T06:15:14.015Z,50
2023-03-29T06:20:18.547Z,50
2023-03-29T06:25:22.603Z,49
2023-03-29T06:30:16.750Z,50
2023-03-29T06:35:23.837Z,49
2023-03-29T06:40:15.629Z,50
2023-03-29T06:45:14.843Z,50
2023-03-29T06:50:19.987Z,50
2023-03-29T06:55:18.230Z,50
2023-03-29T07:00:22.399Z,50
2023-03-29T07:05:14.398Z,49
2023-03-29T07:10:18.411Z,48
2023-03-29T07:15:14.637Z,49
2023-03-29T07:20:20.487Z,49
2023-03-29T07:25:24.349Z,48
2023-03-29T07:30:19.676Z,49
2023-03-29T07:35:20.490Z,49
2023-03-29T07:40:22.324Z,48
2023-03-29T07:45:27.649Z,49
2023-03-29T07:50:14.587Z,48
2023-03-29T07:55:22.504Z,49
2023-03-29T08:00:20.648Z,49
2023-03-29T08:05:38.217Z,48
2023-03-29T08:10:16.420Z,48
2023-03-29T08:15:19.050Z,48
2023-03-29T08:20:13.995Z,48
2023-03-29T08:25:15.715Z,48
2023-03-29T08:30:16.170Z,48
2023-03-29T08:35:16.583Z,49
2023-03-29T08:40:15.600Z,49
2023-03-29T08:45:14.655Z,48
2023-03-29T08:50:20.514Z,49
2023-03-29T08:55:20.370Z,49
2023-03-29T09:00:24.413Z,49
2023-03-29T09:05:18.692Z,48
2023-03-29T09:10:17.857Z,48
2023-03-29T09:15:22.154Z,47
2023-03-29T09:20:18.408Z,48
2023-03-29T09:25:15.104Z,48
2023-03-29T09:30:18.222Z,48
2023-03-29T09:35:16.777Z,48
2023-03-29T09:40:16.792Z,47
2023-03-29T09:45:13.981Z,48
2023-03-29T09:50:31.845Z,48
2023-03-29T09:55:14.714Z,48
2023-03-29T10:00:13.722Z,49
2023-03-29T10:05:20.590Z,49
2023-03-29T10:10:16.542Z,49
2023-03-29T10:15:50.189Z,48
2023-03-29T10:20:37.240Z,49
2023-03-29T10:25:16.974Z,48
2023-03-29T10:30:16.837Z,48
2023-03-29T10:35:25.879Z,49
2023-03-29T10:40:23.983Z,49
2023-03-29T10:45:18.442Z,48
2023-03-29T10:50:17.801Z,47
2023-03-29T10:55:14.109Z,48
2023-03-29T11:00:14.217Z,48
2023-03-29T11:05:15.749Z,48
2023-03-29T11:10:22.748Z,48
2023-03-29T11:15:18.966Z,48
2023-03-29T11:20:20.728Z,48
2023-03-29T11:25:19.151Z,48
2023-03-29T11:30:16.312Z,47
2023-03-29T11:35:20.600Z,48
2023-03-29T11:40:18.493Z,48
2023-03-29T11:45:17.811Z,47
2023-03-29T11:50:21.911Z,47
2023-03-29T11:55:22.000Z,47
2023-03-29T12:00:16.238Z,46
2023-03-29T12:05:18.335Z,46
2023-03-29T12:10:24.545Z,47
2023-03-29T12:15:26.509Z,47
2023-03-29T12:20:20.566Z,47
2023-03-29T12:25:21.984Z,47
2023-03-29T12:30:14.797Z,47
2023-03-29T12:35:17.869Z,47
2023-03-29T12:40:13.987Z,47
2023-03-29T12:45:18.210Z,46
2023-03-29T12:50:26.484Z,46
2023-03-29T12:55:18.556Z,46
2023-03-29T13:00:16.159Z,47
2023-03-29T13:05:14.597Z,47
2023-03-29T13:10:14.820Z,47
2023-03-29T13:15:13.854Z,47
2023-03-29T13:20:15.817Z,47
2023-03-29T13:25:19.835Z,47
2023-03-29T13:30:13.688Z,47
2023-03-29T13:35:18.781Z,47
2023-03-29T13:40:14.077Z,47
2023-03-29T13:45:20.029Z,47
2023-03-29T13:50:17.931Z,46
2023-03-29T13:55:22.234Z,46
2023-03-29T14:00:18.470Z,47
2023-03-29T14:05:17.942Z,46
2023-03-29T14:10:20.630Z,47
2023-03-29T14:15:18.796Z,47
2023-03-29T14:20:20.038Z,48
2023-03-29T14:25:20.053Z,48
2023-03-29T14:30:14.173Z,48
2023-03-29T14:35:18.486Z,48
2023-03-29T14:40:18.478Z,48
2023-03-29T14:45:13.614Z,48
2023-03-29T14:50:23.161Z,48
2023-03-29T14:55:21.979Z,48
2023-03-29T15:00:20.423Z,48
2023-03-29T15:05:17.989Z,47
2023-03-29T15:10:18.504Z,48
2023-03-29T15:15:18.682Z,47
2023-03-29T15:20:13.897Z,48
2023-03-29T15:25:19.932Z,47
2023-03-29T15:35:16.416Z,48
2023-03-29T15:40:18.722Z,47
2023-03-29T15:45:18.197Z,48
2023-03-29T15:50:16.832Z,48
2023-03-29T15:55:15.885Z,46
2023-03-29T16:00:23.784Z,48
2023-03-29T16:05:21.995Z,46
2023-03-29T16:10:18.044Z,48
2023-03-29T16:15:16.205Z,48
2023-03-29T16:20:18.569Z,47
2023-03-29T16:25:13.700Z,49
2023-03-29T16:30:20.321Z,48
2023-03-29T16:35:18.404Z,48
2023-03-29T16:40:20.711Z,48
2023-03-29T16:45:24.773Z,49
2023-03-29T16:50:14.996Z,49
2023-03-29T16:55:21.845Z,50
2023-03-29T17:00:31.725Z,48
2023-03-29T17:05:20.349Z,49
2023-03-29T17:10:16.491Z,48
2023-03-29T17:15:18.949Z,48
2023-03-29T17:20:22.213Z,49
2023-03-29T17:25:15.981Z,49
2023-03-29T17:30:18.130Z,49
2023-03-29T17:35:16.380Z,48
2023-03-29T17:40:16.518Z,49
2023-03-29T17:45:16.666Z,49
2023-03-29T17:50:17.795Z,49
2023-03-29T17:55:18.139Z,48
2023-03-29T18:00:18.492Z,48
2023-03-29T18:05:16.056Z,49
2023-03-29T18:10:13.977Z,49
2023-03-29T18:15:13.921Z,48
2023-03-29T18:20:13.780Z,48
2023-03-29T18:25:14.585Z,51
2023-03-29T18:30:16.614Z,51
2023-03-29T18:35:15.634Z,50
2023-03-29T18:40:20.790Z,50
2023-03-29T18:45:14.773Z,50
2023-03-29T18:50:19.215Z,50
2023-03-29T18:55:18.048Z,51
2023-03-29T19:00:14.185Z,51
2023-03-29T19:05:14.134Z,51
2023-03-29T19:10:16.013Z,52
2023-03-29T19:15:15.920Z,51
2023-03-29T19:20:18.745Z,51
2023-03-29T19:25:13.889Z,50
2023-03-29T19:30:20.222Z,51
2023-03-29T19:35:18.414Z,51
2023-03-29T19:40:18.919Z,52
2023-03-29T19:45:16.316Z,52
2023-03-29T19:50:18.586Z,50
2023-03-29T19:55:15.751Z,50
2023-03-29T20:00:14.515Z,51
2023-03-29T20:05:16.785Z,50
2023-03-29T20:10:15.884Z,50
2023-03-29T20:15:29.802Z,49
2023-03-29T20:20:21.703Z,51
2023-03-29T20:25:18.616Z,50
2023-03-29T20:30:13.915Z,50
2023-03-29T20:35:15.812Z,50
2023-03-29T20:40:13.646Z,50
2023-03-29T20:45:16.388Z,50
2023-03-29T20:50:24.336Z,50
2023-03-29T20:55:16.240Z,50
2023-03-29T21:00:16.562Z,50
2023-03-29T21:05:14.610Z,50
2023-03-29T21:10:20.735Z,50
2023-03-29T21:15:18.990Z,50
2023-03-29T21:20:16.256Z,50
2023-03-29T21:25:24.108Z,50
2023-03-29T21:30:16.036Z,50
2023-03-29T21:35:15.959Z,50
2023-03-29T21:40:13.980Z,50
2023-03-29T21:45:22.053Z,50
2023-03-29T21:50:24.095Z,50
2023-03-29T21:55:28.046Z,48
2023-03-29T22:00:14.330Z,50
2023-03-29T22:05:18.353Z,50
2023-03-29T22:10:20.783Z,50
2023-03-29T22:15:19.946Z,49
2023-03-29T22:20:20.124Z,49
2023-03-29T22:25:18.205Z,50
2023-03-29T22:30:16.369Z,50
2023-03-29T22:35:18.559Z,50
2023-03-29T22:40:16.022Z,50
2023-03-29T22:45:16.062Z,50
2023-03-29T22:50:15.926Z,50
2023-03-29T22:55:17.895Z,50
2023-03-29T23:00:18.589Z,50
2023-03-29T23:05:15.673Z,50
2023-03-29T23:10:16.525Z,50
2023-03-29T23:15:16.818Z,50
2023-03-29T23:20:14.016Z,50
2023-03-29T23:25:21.803Z,50
2023-03-29T23:30:15.749Z,50
2023-03-29T23:35:14.763Z,50
2023-03-29T23:40:18.957Z,50
2023-03-29T23:45:14.207Z,50
2023-03-29T23:50:26.159Z,50
2023-03-29T23:55:14.011Z,50
